createdAt,value
2022-11-07T00:01:55.564Z,65.82
2022-11-07T00:04:38.938Z,66.05
2022-11-07T00:07:21.998Z,65.91
2022-11-07T00:10:06.362Z,65.94
2022-11-07T00:12:49.426Z,66.17
2022-11-07T00:15:33.810Z,65.90
2022-11-07T00:18:16.767Z,66.10
2022-11-07T00:21:02.311Z,65.88
2022-11-07T00:23:45.324Z,66.27
2022-11-07T00:26:28.515Z,66.32
2022-11-07T00:29:14.475Z,66.39
2022-11-07T00:31:59.706Z,66.32
2022-11-07T00:34:42.656Z,66.30
2022-11-07T00:37:25.606Z,66.28
2022-11-07T00:40:10.567Z,66.41
2022-11-07T00:42:53.466Z,66.19
2022-11-07T00:45:36.698Z,66.19
2022-11-07T00:48:21.647Z,66.37
2022-11-07T00:51:08.889Z,66.58
2022-11-07T00:53:52.650Z,66.67
2022-11-07T00:56:35.768Z,66.53
2022-11-07T00:59:18.982Z,66.61
2022-11-07T01:02:01.940Z,66.59
2022-11-07T01:05:03.864Z,66.70
2022-11-07T01:07:46.798Z,66.67
2022-11-07T01:10:29.795Z,66.42
2022-11-07T01:13:12.951Z,66.58
2022-11-07T01:15:56.175Z,66.43
2022-11-07T01:18:39.761Z,66.44
2022-11-07T01:21:24.280Z,66.54
2022-11-07T01:24:10.975Z,66.51
2022-11-07T01:26:53.936Z,66.81
2022-11-07T01:29:37.383Z,66.96
2022-11-07T01:32:20.548Z,67.01
2022-11-07T01:35:03.434Z,67.20
2022-11-07T01:37:47.777Z,67.38
2022-11-07T01:40:31.143Z,67.61
2022-11-07T01:43:14.416Z,67.51
2022-11-07T01:45:57.512Z,67.75
2022-11-07T01:48:42.148Z,67.78
2022-11-07T01:51:25.652Z,68.58
2022-11-07T01:54:10.516Z,68.06
2022-11-07T01:56:56.008Z,68.20
2022-11-07T01:59:40.595Z,68.15
2022-11-07T02:02:25.213Z,68.34
2022-11-07T02:05:08.574Z,68.68
2022-11-07T02:07:52.042Z,68.12
2022-11-07T02:10:36.802Z,68.01
2022-11-07T02:13:26.669Z,68.14
2022-11-07T02:16:09.925Z,68.09
2022-11-07T02:18:53.079Z,68.25
2022-11-07T02:21:45.316Z,68.06
2022-11-07T02:24:32.742Z,68.21
2022-11-07T02:27:18.723Z,68.33
2022-11-07T02:30:03.911Z,68.70
2022-11-07T02:32:47.638Z,68.60
2022-11-07T02:35:38.476Z,68.56
2022-11-07T02:38:24.942Z,68.63
2022-11-07T02:41:13.161Z,69.00
2022-11-07T02:43:59.694Z,68.63
2022-11-07T02:46:42.852Z,68.83
2022-11-07T02:49:25.859Z,68.80
2022-11-07T02:52:08.931Z,68.90
2022-11-07T02:54:51.880Z,68.95
2022-11-07T02:57:36.380Z,68.97
2022-11-07T03:00:19.378Z,69.02
2022-11-07T03:03:02.320Z,69.14
2022-11-07T03:05:45.344Z,69.37
2022-11-07T03:08:28.277Z,69.36
2022-11-07T03:11:12.768Z,69.08
2022-11-07T03:13:57.303Z,69.30
2022-11-07T03:16:40.266Z,69.43
2022-11-07T03:19:23.373Z,69.50
2022-11-07T03:22:06.371Z,69.78
2022-11-07T03:24:49.307Z,69.63
2022-11-07T03:27:32.291Z,69.70
2022-11-07T03:30:17.216Z,69.63
2022-11-07T03:33:00.133Z,70.04
2022-11-07T03:35:43.602Z,69.84
2022-11-07T03:38:26.691Z,69.98
2022-11-07T03:41:09.972Z,69.87
2022-11-07T03:43:53.938Z,69.83
2022-11-07T03:46:38.264Z,69.82
2022-11-07T03:49:21.195Z,69.92
2022-11-07T03:52:04.356Z,69.81
2022-11-07T03:54:47.236Z,69.64
2022-11-07T03:57:30.335Z,69.76
2022-11-07T04:00:14.971Z,69.93
2022-11-07T04:02:59.340Z,70.01
2022-11-07T04:05:42.330Z,69.73
2022-11-07T04:08:25.935Z,69.84
2022-11-07T04:11:28.880Z,69.95
2022-11-07T04:14:29.109Z,69.82
2022-11-07T04:17:21.471Z,69.95
2022-11-07T04:20:07.174Z,69.82
2022-11-07T04:22:50.087Z,69.95
2022-11-07T04:25:50.266Z,70.04
2022-11-07T04:28:33.236Z,69.98
2022-11-07T04:31:16.182Z,70.24
2022-11-07T04:33:59.149Z,70.23
2022-11-07T04:36:43.448Z,70.36
2022-11-07T04:39:26.456Z,70.30
2022-11-07T04:42:09.506Z,70.41
2022-11-07T04:44:52.451Z,70.51
2022-11-07T04:47:40.174Z,70.48
2022-11-07T04:50:23.497Z,70.51
2022-11-07T04:53:07.859Z,70.66
2022-11-07T04:55:50.769Z,70.69
2022-11-07T04:58:33.778Z,70.83
2022-11-07T05:01:16.735Z,70.63
2022-11-07T05:03:59.870Z,70.74
2022-11-07T05:06:43.287Z,70.81
2022-11-07T05:09:27.886Z,70.90
2022-11-07T05:12:10.715Z,71.61
2022-11-07T05:14:53.677Z,71.20
2022-11-07T05:17:36.594Z,71.22
2022-11-07T05:20:28.615Z,71.17
2022-11-07T05:23:15.882Z,71.23
2022-11-07T05:26:00.751Z,71.17
2022-11-07T05:28:43.738Z,71.20
2022-11-07T05:31:26.707Z,71.31
2022-11-07T05:34:13.587Z,71.31
2022-11-07T05:36:57.537Z,71.22
2022-11-07T05:39:40.642Z,71.44
2022-11-07T05:42:24.953Z,71.52
2022-11-07T05:45:09.664Z,71.34
2022-11-07T05:47:57.711Z,71.86
2022-11-07T05:50:41.721Z,71.58
2022-11-07T05:53:25.539Z,71.45
2022-11-07T05:56:08.609Z,71.38
2022-11-07T05:58:52.922Z,71.37
2022-11-07T06:01:35.979Z,71.44
2022-11-07T06:04:18.999Z,71.44
2022-11-07T06:07:01.874Z,71.14
2022-11-07T06:09:44.819Z,70.95
2022-11-07T06:12:27.775Z,70.96
2022-11-07T06:15:12.528Z,70.98
2022-11-07T06:17:55.427Z,70.90
2022-11-07T06:20:38.481Z,70.98
2022-11-07T06:23:21.435Z,71.13
2022-11-07T06:26:04.401Z,71.56
2022-11-07T06:28:47.383Z,71.52
2022-11-07T06:31:31.991Z,71.46
2022-11-07T06:34:14.725Z,72.28
2022-11-07T06:37:02.885Z,71.97
2022-11-07T06:39:46.548Z,72.15
2022-11-07T06:42:29.491Z,72.24
2022-11-07T06:45:13.124Z,72.41
2022-11-07T06:47:57.838Z,72.36
2022-11-07T06:50:41.005Z,72.65
2022-11-07T06:53:24.181Z,72.60
2022-11-07T06:56:09.347Z,72.49
2022-11-07T06:58:52.381Z,72.70
2022-11-07T07:01:35.501Z,72.58
2022-11-07T07:04:19.928Z,72.62
2022-11-07T07:07:02.939Z,72.44
2022-11-07T07:09:45.862Z,72.70
2022-11-07T07:12:28.821Z,72.63
2022-11-07T07:15:12.064Z,72.68
2022-11-07T07:17:55.044Z,72.84
2022-11-07T07:20:39.421Z,72.97
2022-11-07T07:23:22.608Z,72.90
2022-11-07T07:26:08.188Z,72.96
2022-11-07T07:28:51.143Z,72.96
2022-11-07T07:31:34.084Z,73.11
2022-11-07T07:34:17.063Z,73.19
2022-11-07T07:37:01.398Z,73.07
2022-11-07T07:39:44.485Z,73.74
2022-11-07T07:42:27.477Z,73.05
2022-11-07T07:45:12.359Z,73.10
2022-11-07T07:48:01.094Z,72.84
2022-11-07T07:50:44.124Z,73.00
2022-11-07T07:53:28.532Z,73.12
2022-11-07T07:56:11.482Z,73.26
2022-11-07T07:58:54.465Z,73.22
2022-11-07T08:01:37.683Z,73.26
2022-11-07T08:04:20.739Z,73.20
2022-11-07T08:07:03.684Z,73.17
2022-11-07T08:09:48.127Z,73.25
2022-11-07T08:12:31.063Z,73.20
2022-11-07T08:15:21.597Z,73.13
2022-11-07T08:18:16.224Z,72.98
2022-11-07T08:21:08.533Z,72.97
2022-11-07T08:23:59.178Z,72.79
2022-11-07T08:26:52.706Z,72.97
2022-11-07T08:29:35.633Z,72.94
2022-11-07T08:32:18.602Z,72.75
2022-11-07T08:35:01.608Z,72.56
2022-11-07T08:37:54.823Z,72.79
2022-11-07T08:40:44.262Z,72.70
2022-11-07T08:43:30.260Z,72.54
2022-11-07T08:46:17.884Z,72.07
2022-11-07T08:49:12.424Z,72.14
2022-11-07T08:52:05.149Z,72.38
2022-11-07T08:54:56.324Z,72.43
2022-11-07T08:57:40.911Z,72.53
2022-11-07T09:00:25.414Z,72.77
2022-11-07T09:06:14.990Z,72.74
2022-11-07T09:08:58.060Z,72.51
2022-11-07T09:11:42.272Z,72.34
2022-11-07T09:14:25.280Z,72.04
2022-11-07T09:17:09.804Z,72.00
2022-11-07T09:19:52.749Z,72.06
2022-11-07T09:22:35.670Z,72.03
2022-11-07T09:25:19.344Z,71.82
2022-11-07T09:28:06.046Z,71.49
2022-11-07T09:30:54.360Z,71.71
2022-11-07T09:33:38.690Z,71.60
2022-11-07T09:36:25.134Z,71.56
2022-11-07T09:39:14.175Z,71.64
2022-11-07T09:42:04.935Z,71.24
2022-11-07T09:44:56.587Z,70.92
2022-11-07T09:47:44.825Z,70.75
2022-11-07T09:50:32.822Z,70.37
2022-11-07T09:53:24.515Z,70.30
2022-11-07T09:56:13.555Z,69.93
2022-11-07T09:59:00.295Z,69.71
2022-11-07T10:01:43.504Z,69.68
2022-11-07T10:04:27.347Z,69.84
2022-11-07T10:07:23.368Z,69.88
2022-11-07T10:10:14.800Z,69.99
2022-11-07T10:13:12.316Z,69.71
2022-11-07T10:16:04.875Z,69.43
2022-11-07T10:19:01.338Z,69.23
2022-11-07T10:21:50.342Z,69.10
2022-11-07T10:24:51.932Z,68.87
2022-11-07T10:27:36.886Z,68.82
2022-11-07T10:30:22.116Z,68.50
2022-11-07T10:33:13.673Z,68.59
2022-11-07T10:36:02.436Z,68.40
2022-11-07T10:38:45.500Z,67.89
2022-11-07T10:41:31.897Z,67.65
2022-11-07T10:44:22.316Z,67.20
2022-11-07T10:47:16.696Z,66.58
2022-11-07T10:50:01.565Z,66.51
2022-11-07T10:52:53.712Z,65.90
2022-11-07T10:55:45.318Z,65.30
2022-11-07T10:58:35.215Z,65.17
2022-11-07T11:01:25.425Z,64.96
2022-11-07T11:04:08.629Z,64.97
2022-11-07T11:06:59.876Z,65.24
2022-11-07T11:09:51.495Z,64.77
2022-11-07T11:12:35.601Z,64.76
2022-11-07T11:15:21.868Z,64.82
2022-11-07T11:18:06.967Z,63.91
2022-11-07T11:20:56.717Z,63.31
2022-11-07T11:23:44.900Z,62.70
2022-11-07T11:26:31.755Z,62.61
2022-11-07T11:29:28.951Z,61.89
2022-11-07T11:32:26.768Z,61.54
2022-11-07T11:35:23.719Z,61.42
2022-11-07T11:38:15.167Z,60.93
2022-11-07T11:41:07.698Z,61.09
2022-11-07T11:44:04.518Z,60.57
2022-11-07T11:46:53.971Z,60.66
2022-11-07T11:49:44.388Z,60.34
2022-11-07T11:52:29.614Z,60.60
2022-11-07T11:55:15.577Z,60.50
2022-11-07T11:58:05.876Z,60.40
2022-11-07T12:00:58.038Z,59.94
2022-11-07T12:04:08.077Z,59.68
2022-11-07T12:06:58.968Z,60.17
2022-11-07T12:09:47.267Z,59.75
2022-11-07T12:12:43.215Z,59.77
2022-11-07T12:15:42.582Z,59.30
2022-11-07T12:18:38.304Z,59.71
2022-11-07T12:21:31.226Z,59.66
2022-11-07T12:24:33.754Z,59.39
2022-11-07T12:27:27.263Z,59.62
2022-11-07T12:30:21.144Z,59.55
2022-11-07T12:33:15.063Z,60.00
2022-11-07T12:36:04.006Z,60.15
2022-11-07T12:39:05.996Z,59.97
2022-11-07T12:41:57.546Z,60.36
2022-11-07T12:45:00.748Z,60.42
2022-11-07T12:48:11.840Z,60.56
2022-11-07T12:51:03.327Z,60.83
2022-11-07T12:53:56.283Z,60.71
2022-11-07T12:56:40.356Z,60.45
2022-11-07T12:59:27.614Z,60.70
2022-11-07T13:02:25.264Z,60.71
2022-11-07T13:05:20.664Z,60.80
2022-11-07T13:08:12.221Z,60.94
2022-11-07T13:11:03.638Z,60.89
2022-11-07T13:14:00.149Z,60.62
2022-11-07T13:16:53.145Z,60.82
2022-11-07T13:19:37.909Z,61.12
2022-11-07T13:22:22.169Z,60.85
2022-11-07T13:25:33.641Z,61.08
2022-11-07T13:28:28.510Z,60.79
2022-11-07T13:31:31.945Z,61.07
2022-11-07T13:34:28.167Z,60.89
2022-11-07T13:37:20.923Z,61.12
2022-11-07T13:40:08.393Z,61.08
2022-11-07T13:42:55.730Z,61.02
2022-11-07T13:45:44.196Z,61.06
2022-11-07T13:48:32.450Z,61.19
2022-11-07T13:51:21.731Z,61.49
2022-11-07T13:54:15.589Z,61.35
2022-11-07T13:57:02.695Z,61.27
2022-11-07T13:59:51.082Z,61.30
2022-11-07T14:02:35.868Z,61.14
2022-11-07T14:05:22.971Z,60.96
2022-11-07T14:08:14.924Z,61.08
2022-11-07T14:10:58.547Z,60.73
2022-11-07T14:13:41.984Z,60.81
2022-11-07T14:16:27.802Z,60.73
2022-11-07T14:19:15.611Z,60.56
2022-11-07T14:21:59.052Z,60.46
2022-11-07T14:24:52.560Z,60.48
2022-11-07T14:27:36.518Z,60.67
2022-11-07T14:30:21.940Z,60.71
2022-11-07T14:33:06.996Z,60.73
2022-11-07T14:35:52.334Z,60.28
2022-11-07T14:38:35.291Z,60.20
2022-11-07T14:41:20.927Z,60.27
2022-11-07T14:44:05.570Z,60.61
2022-11-07T14:46:49.763Z,60.77
2022-11-07T14:49:37.929Z,60.90
2022-11-07T14:52:24.362Z,60.77
2022-11-07T14:55:17.861Z,60.89
2022-11-07T14:58:04.281Z,60.65
2022-11-07T15:00:53.644Z,60.93
2022-11-07T15:03:39.440Z,61.03
2022-11-07T15:06:25.137Z,61.00
2022-11-07T15:09:09.923Z,61.07
2022-11-07T15:11:57.371Z,61.22
2022-11-07T15:14:41.710Z,61.25
2022-11-07T15:17:27.625Z,61.32
2022-11-07T15:20:21.681Z,61.60
2022-11-07T15:23:07.204Z,61.84
2022-11-07T15:25:54.314Z,61.89
2022-11-07T15:28:46.733Z,61.99
2022-11-07T15:31:31.676Z,62.14
2022-11-07T15:34:17.961Z,62.17
2022-11-07T15:37:10.378Z,62.28
2022-11-07T15:39:53.549Z,62.51
2022-11-07T15:42:36.512Z,62.40
2022-11-07T15:45:20.089Z,62.50
2022-11-07T15:48:06.705Z,62.79
2022-11-07T15:50:50.768Z,62.87
2022-11-07T15:53:33.740Z,63.06
2022-11-07T15:56:20.452Z,63.11
2022-11-07T15:59:03.440Z,63.31
2022-11-07T16:01:47.444Z,63.38
2022-11-07T16:04:35.298Z,63.49
2022-11-07T16:07:21.618Z,63.68
2022-11-07T16:10:05.871Z,63.87
2022-11-07T16:12:48.987Z,63.86
2022-11-07T16:15:32.068Z,64.02
2022-11-07T16:18:21.734Z,64.10
2022-11-07T16:21:06.785Z,64.28
2022-11-07T16:23:49.860Z,64.37
2022-11-07T16:26:33.111Z,64.27
2022-11-07T16:29:16.589Z,64.21
2022-11-07T16:32:00.016Z,64.34
2022-11-07T16:34:42.991Z,64.49
2022-11-07T16:37:27.281Z,64.86
2022-11-07T16:40:15.733Z,65.08
2022-11-07T16:42:58.649Z,65.24
2022-11-07T16:45:46.462Z,65.51
2022-11-07T16:48:30.716Z,65.86
2022-11-07T16:51:16.598Z,65.85
2022-11-07T16:54:00.969Z,66.08
2022-11-07T16:56:44.041Z,66.20
2022-11-07T16:59:27.166Z,66.43
2022-11-07T17:02:20.834Z,66.53
2022-11-07T17:05:04.812Z,66.45
2022-11-07T17:07:49.386Z,66.60
2022-11-07T17:10:33.795Z,66.87
2022-11-07T17:13:16.856Z,66.97
2022-11-07T17:16:00.502Z,66.94
2022-11-07T17:18:44.146Z,67.14
2022-11-07T17:21:28.635Z,67.22
2022-11-07T17:24:11.688Z,67.52
2022-11-07T17:26:56.011Z,67.74
2022-11-07T17:29:39.325Z,67.37
2022-11-07T17:32:22.361Z,67.87
2022-11-07T17:35:30.553Z,68.04
2022-11-07T17:38:16.407Z,68.10
2022-11-07T17:41:17.141Z,68.30
2022-11-07T17:44:02.242Z,68.65
2022-11-07T17:46:49.114Z,68.36
2022-11-07T17:49:32.069Z,68.43
2022-11-07T17:52:15.021Z,68.29
2022-11-07T17:54:57.951Z,68.38
2022-11-07T17:57:42.468Z,68.23
2022-11-07T18:00:27.978Z,68.42
2022-11-07T18:03:11.354Z,68.59
2022-11-07T18:05:54.340Z,68.75
2022-11-07T18:08:51.815Z,69.07
2022-11-07T18:11:36.244Z,68.61
2022-11-07T18:14:19.154Z,68.81
2022-11-07T18:17:03.496Z,68.79
2022-11-07T18:19:46.555Z,68.94
2022-11-07T18:22:29.543Z,68.98
2022-11-07T18:25:12.739Z,68.94
2022-11-07T18:27:55.710Z,68.87
2022-11-07T18:30:38.674Z,69.16
2022-11-07T18:33:23.075Z,69.07
2022-11-07T18:36:08.855Z,68.97
2022-11-07T18:38:52.032Z,68.85
2022-11-07T18:41:35.330Z,69.03
2022-11-07T18:44:19.100Z,69.63
2022-11-07T18:47:02.161Z,69.85
2022-11-07T18:49:46.542Z,69.81
2022-11-07T18:52:31.428Z,69.93
2022-11-07T18:55:14.402Z,69.69
2022-11-07T18:57:59.269Z,69.65
2022-11-07T19:00:44.977Z,69.95
2022-11-07T19:03:28.021Z,70.23
2022-11-07T19:06:15.373Z,70.38
2022-11-07T19:08:58.920Z,70.33
2022-11-07T19:11:41.973Z,70.48
2022-11-07T19:14:25.224Z,70.20
2022-11-07T19:17:08.239Z,70.21
2022-11-07T19:19:51.232Z,70.47
2022-11-07T19:22:35.568Z,70.17
2022-11-07T19:25:19.014Z,70.29
2022-11-07T19:28:02.007Z,70.16
2022-11-07T19:30:45.352Z,70.87
2022-11-07T19:33:28.293Z,70.83
2022-11-07T19:36:14.842Z,70.91
2022-11-07T19:38:59.292Z,70.70
2022-11-07T19:41:42.479Z,71.20
2022-11-07T19:44:25.570Z,70.63
2022-11-07T19:47:08.513Z,70.60
2022-11-07T19:49:51.526Z,70.48
2022-11-07T19:52:34.533Z,70.37
2022-11-07T19:55:18.895Z,70.79
2022-11-07T19:58:01.811Z,70.70
2022-11-07T20:00:44.764Z,70.44
2022-11-07T20:03:27.875Z,70.38
2022-11-07T20:06:12.207Z,70.64
2022-11-07T20:08:55.226Z,70.61
2022-11-07T20:11:39.875Z,70.85
2022-11-07T20:14:22.657Z,71.15
2022-11-07T20:17:06.411Z,70.86
2022-11-07T20:19:49.383Z,71.05
2022-11-07T20:22:32.392Z,70.66
2022-11-07T20:25:15.766Z,70.80
2022-11-07T20:28:00.134Z,71.38
2022-11-07T20:30:43.299Z,71.41
2022-11-07T20:33:26.312Z,71.68
2022-11-07T20:36:12.903Z,71.58
2022-11-07T20:38:56.353Z,71.36
2022-11-07T20:41:41.470Z,71.25
2022-11-07T20:44:28.171Z,71.82
2022-11-07T20:47:12.112Z,71.91
2022-11-07T20:49:55.111Z,71.91
2022-11-07T20:52:38.123Z,71.78
2022-11-07T20:55:21.072Z,71.82
2022-11-07T20:58:04.445Z,71.92
2022-11-07T21:00:48.799Z,72.09
2022-11-07T21:03:32.865Z,72.04
2022-11-07T21:06:16.107Z,72.13
2022-11-07T21:08:59.546Z,72.40
2022-11-07T21:11:42.949Z,72.51
2022-11-07T21:14:26.283Z,72.61
2022-11-07T21:17:10.747Z,72.53
2022-11-07T21:19:53.754Z,72.44
2022-11-07T21:22:36.758Z,72.59
2022-11-07T21:25:19.726Z,72.54
2022-11-07T21:28:02.633Z,72.60
2022-11-07T21:30:46.364Z,72.65
2022-11-07T21:33:31.226Z,72.75
2022-11-07T21:36:17.597Z,72.89
2022-11-07T21:39:02.008Z,72.86
2022-11-07T21:41:45.429Z,73.04
2022-11-07T21:44:28.437Z,72.87
2022-11-07T21:47:11.474Z,72.94
2022-11-07T21:49:55.807Z,72.97
2022-11-07T21:52:38.776Z,73.28
2022-11-07T21:55:21.734Z,73.12
2022-11-07T21:58:04.725Z,73.43
2022-11-07T22:00:47.776Z,73.42
2022-11-07T22:03:51.532Z,73.45
2022-11-07T22:06:36.541Z,73.61
2022-11-07T22:09:22.432Z,73.47
2022-11-07T22:12:05.723Z,73.44
2022-11-07T22:14:49.704Z,73.35
2022-11-07T22:17:32.678Z,73.52
2022-11-07T22:20:15.775Z,73.53
2022-11-07T22:23:00.570Z,73.71
2022-11-07T22:25:43.561Z,73.64
2022-11-07T22:28:26.491Z,73.58
2022-11-07T22:31:12.025Z,73.65
2022-11-07T22:33:55.455Z,73.66
2022-11-07T22:36:38.418Z,73.49
2022-11-07T22:39:22.736Z,73.69
2022-11-07T22:42:05.916Z,73.63
2022-11-07T22:44:48.839Z,73.84
2022-11-07T22:47:31.785Z,73.75
2022-11-07T22:50:14.709Z,73.69
2022-11-07T22:52:57.706Z,73.73
2022-11-07T22:55:42.026Z,73.90
2022-11-07T22:58:25.078Z,73.91
2022-11-07T23:01:14.410Z,73.96
2022-11-07T23:03:58.805Z,73.91
2022-11-07T23:06:42.324Z,73.89
2022-11-07T23:09:25.277Z,73.97
2022-11-07T23:12:09.686Z,74.15
2022-11-07T23:14:55.220Z,74.00
2022-11-07T23:17:39.117Z,74.25
2022-11-07T23:20:35.966Z,74.03
2022-11-07T23:23:19.125Z,74.15
2022-11-07T23:26:02.461Z,74.33
2022-11-07T23:28:47.315Z,74.36
2022-11-07T23:31:30.854Z,74.42
2022-11-07T23:34:14.581Z,74.33
2022-11-07T23:36:57.624Z,74.59
2022-11-07T23:39:41.640Z,74.53
2022-11-07T23:42:24.535Z,74.81
2022-11-07T23:45:29.560Z,74.84
2022-11-07T23:48:31.881Z,74.66
2022-11-07T23:51:15.242Z,74.53
2022-11-07T23:54:15.968Z,74.58
2022-11-07T23:56:58.967Z,74.63
2022-11-07T23:59:59.740Z,74.72
